createdAt,value
2023-03-16T00:00:51.039Z,22.80
2023-03-16T00:01:53.545Z,22.45
2023-03-16T00:02:56.007Z,23.17
2023-03-16T00:04:02.390Z,22.90
2023-03-16T00:05:11.716Z,23.27
2023-03-16T00:06:16.394Z,23.70
2023-03-16T00:07:22.784Z,22.90
2023-03-16T00:08:30.324Z,22.83
2023-03-16T00:09:33.767Z,22.95
2023-03-16T00:10:36.830Z,23.00
2023-03-16T00:11:40.014Z,22.90
2023-03-16T00:12:44.140Z,22.20
2023-03-16T00:13:49.573Z,23.60
2023-03-16T00:14:55.839Z,22.88
2023-03-16T00:16:05.430Z,23.30
2023-03-16T00:17:19.762Z,22.40
2023-03-16T00:18:28.695Z,23.17
2023-03-16T00:21:44.654Z,22.45
2023-03-16T00:22:47.814Z,23.33
2023-03-16T00:23:49.921Z,23.15
2023-03-16T00:24:53.972Z,22.30
2023-03-16T00:25:59.883Z,23.15
2023-03-16T00:27:04.176Z,23.88
2023-03-16T00:28:09.685Z,23.98
2023-03-16T00:29:12.614Z,24.02
2023-03-16T00:30:19.253Z,23.17
2023-03-16T00:31:25.278Z,23.67
2023-03-16T00:32:37.742Z,23.20
2023-03-16T00:33:43.102Z,23.83
2023-03-16T00:34:47.174Z,22.85
2023-03-16T00:35:51.453Z,24.58
2023-03-16T00:36:55.363Z,24.02
2023-03-16T00:37:57.994Z,23.15
2023-03-16T00:39:01.120Z,23.65
2023-03-16T00:40:08.984Z,23.77
2023-03-16T00:41:19.193Z,23.80
2023-03-16T00:42:33.255Z,23.40
2023-03-16T00:43:45.619Z,22.23
2023-03-16T00:44:48.808Z,23.63
2023-03-16T00:46:00.940Z,22.60
2023-03-16T00:47:14.760Z,23.05
2023-03-16T00:48:24.596Z,22.40
2023-03-16T00:49:27.242Z,22.45
2023-03-16T00:50:30.095Z,23.85
2023-03-16T00:51:34.126Z,22.30
2023-03-16T00:52:40.023Z,23.17
2023-03-16T00:53:49.028Z,23.17
2023-03-16T00:54:53.481Z,22.20
2023-03-16T00:55:57.705Z,23.08
2023-03-16T00:57:02.795Z,22.83
2023-03-16T00:58:17.983Z,22.27
2023-03-16T00:59:22.433Z,21.38
2023-03-16T01:00:28.679Z,21.80
2023-03-16T01:01:34.419Z,22.45
2023-03-16T01:02:42.204Z,21.77
2023-03-16T01:03:45.160Z,23.20
2023-03-16T01:04:54.542Z,26.25
2023-03-16T01:06:00.385Z,25.33
2023-03-16T01:07:05.002Z,22.65
2023-03-16T01:08:07.417Z,22.48
2023-03-16T01:09:15.547Z,22.30
2023-03-16T01:10:22.769Z,21.83
2023-03-16T01:11:29.260Z,23.05
2023-03-16T01:12:35.544Z,22.55
2023-03-16T01:13:39.379Z,22.30
2023-03-16T01:16:08.331Z,21.55
2023-03-16T01:17:14.032Z,20.50
2023-03-16T01:18:25.527Z,21.73
2023-03-16T01:19:31.303Z,21.48
2023-03-16T01:20:35.117Z,21.52
2023-03-16T01:21:45.467Z,21.63
2023-03-16T01:22:49.439Z,21.50
2023-03-16T01:23:54.976Z,21.48
2023-03-16T01:25:00.674Z,22.30
2023-03-16T01:26:12.737Z,20.92
2023-03-16T01:27:16.868Z,20.08
2023-03-16T01:28:22.199Z,20.50
2023-03-16T01:29:25.520Z,20.02
2023-03-16T01:30:30.838Z,20.67
2023-03-16T01:31:34.914Z,20.13
2023-03-16T01:32:38.400Z,20.30
2023-03-16T01:33:44.432Z,21.63
2023-03-16T01:34:50.827Z,20.50
2023-03-16T01:35:56.579Z,20.88
2023-03-16T01:37:05.846Z,19.73
2023-03-16T01:38:23.132Z,19.38
2023-03-16T01:39:25.911Z,18.90
2023-03-16T01:40:30.740Z,20.67
2023-03-16T01:41:33.045Z,20.08
2023-03-16T01:42:45.917Z,20.40
2023-03-16T01:43:49.392Z,20.60
2023-03-16T01:44:55.524Z,19.55
2023-03-16T01:46:19.784Z,19.75
2023-03-16T01:47:24.118Z,19.30
2023-03-16T01:48:28.908Z,20.17
2023-03-16T01:49:39.155Z,19.33
2023-03-16T01:50:46.338Z,20.08
2023-03-16T01:51:56.445Z,19.65
2023-03-16T01:53:01.857Z,18.52
2023-03-16T01:54:15.070Z,20.83
2023-03-16T01:55:18.552Z,18.48
2023-03-16T01:56:27.483Z,18.98
2023-03-16T01:57:37.160Z,19.08
2023-03-16T01:58:42.748Z,19.25
2023-03-16T01:59:49.374Z,20.48
2023-03-16T02:00:52.246Z,19.13
2023-03-16T02:01:59.443Z,18.55
2023-03-16T02:03:11.897Z,19.20
2023-03-16T02:04:34.339Z,20.20
2023-03-16T02:05:56.736Z,18.70
2023-03-16T02:07:01.444Z,18.48
2023-03-16T02:08:07.221Z,19.25
2023-03-16T02:09:12.501Z,19.30
2023-03-16T02:10:23.853Z,18.67
2023-03-16T02:11:30.852Z,19.13
2023-03-16T02:12:51.531Z,17.65
2023-03-16T02:14:16.208Z,17.70
2023-03-16T02:15:27.645Z,19.15
2023-03-16T02:16:30.261Z,17.92
2023-03-16T02:17:36.196Z,17.83
2023-03-16T02:18:44.555Z,17.92
2023-03-16T02:20:38.532Z,18.15
2023-03-16T02:22:07.619Z,18.05
2023-03-16T02:23:19.785Z,17.60
2023-03-16T02:24:25.549Z,17.45
2023-03-16T02:25:37.368Z,17.02
2023-03-16T02:26:58.538Z,17.80
2023-03-16T02:28:21.472Z,17.63
2023-03-16T02:29:52.031Z,17.17
2023-03-16T02:30:58.996Z,17.80
2023-03-16T02:32:03.182Z,17.98
2023-03-16T02:33:07.908Z,17.75
2023-03-16T02:34:10.813Z,17.15
2023-03-16T02:35:13.995Z,17.30
2023-03-16T02:36:19.936Z,17.08
2023-03-16T02:37:23.182Z,17.48
2023-03-16T02:38:27.520Z,16.58
2023-03-16T02:39:31.740Z,17.50
2023-03-16T02:40:36.771Z,17.33
2023-03-16T02:41:43.171Z,16.85
2023-03-16T02:43:05.040Z,17.98
2023-03-16T02:44:34.461Z,16.83
2023-03-16T02:45:49.924Z,16.50
2023-03-16T02:47:03.043Z,18.45
2023-03-16T02:48:14.831Z,16.77
2023-03-16T02:50:30.421Z,16.98
2023-03-16T02:51:33.461Z,17.15
2023-03-16T02:52:40.401Z,16.92
2023-03-16T02:53:52.910Z,17.52
2023-03-16T02:54:59.231Z,16.42
2023-03-16T02:56:05.324Z,16.73
2023-03-16T02:57:22.214Z,17.15
2023-03-16T02:58:30.532Z,16.25
2023-03-16T02:59:34.316Z,16.63
2023-03-16T03:00:41.021Z,17.30
2023-03-16T03:01:43.348Z,16.23
2023-03-16T03:02:49.648Z,16.27
2023-03-16T03:03:56.238Z,15.52
2023-03-16T03:05:02.159Z,15.55
2023-03-16T03:06:08.260Z,16.30
2023-03-16T03:07:16.070Z,16.60
2023-03-16T03:08:39.781Z,16.33
2023-03-16T03:09:44.033Z,15.18
2023-03-16T03:10:51.512Z,15.60
2023-03-16T03:11:56.398Z,16.48
2023-03-16T03:13:00.689Z,15.15
2023-03-16T03:14:06.041Z,16.25
2023-03-16T03:15:10.366Z,16.17
2023-03-16T03:16:27.460Z,15.68
2023-03-16T03:17:34.298Z,15.95
2023-03-16T03:18:38.354Z,15.75
2023-03-16T03:19:40.804Z,15.57
2023-03-16T03:20:44.585Z,16.67
2023-03-16T03:21:48.140Z,15.23
2023-03-16T03:22:53.827Z,16.08
2023-03-16T03:24:00.609Z,15.80
2023-03-16T03:26:42.584Z,15.07
2023-03-16T03:27:57.325Z,14.30
2023-03-16T03:29:01.317Z,15.35
2023-03-16T03:30:13.187Z,14.93
2023-03-16T03:31:19.409Z,14.93
2023-03-16T03:32:26.412Z,15.30
2023-03-16T03:33:33.892Z,15.98
2023-03-16T03:34:47.557Z,14.63
2023-03-16T03:35:58.669Z,15.85
2023-03-16T03:37:07.995Z,15.05
2023-03-16T03:38:14.884Z,15.13
2023-03-16T03:39:21.814Z,15.18
2023-03-16T03:40:26.315Z,14.70
2023-03-16T03:41:36.234Z,15.40
2023-03-16T03:42:43.749Z,15.35
2023-03-16T03:43:48.624Z,15.90
2023-03-16T03:44:54.143Z,14.90
2023-03-16T03:46:01.254Z,15.65
2023-03-16T03:47:10.728Z,15.68
2023-03-16T03:48:13.804Z,15.02
2023-03-16T03:49:18.181Z,15.27
2023-03-16T03:50:21.506Z,14.75
2023-03-16T03:51:34.799Z,15.23
2023-03-16T03:52:48.226Z,14.32
2023-03-16T03:53:52.423Z,13.85
2023-03-16T03:55:14.007Z,14.00
2023-03-16T03:56:22.879Z,14.55
2023-03-16T03:57:25.209Z,14.52
2023-03-16T03:58:27.360Z,15.63
2023-03-16T03:59:29.859Z,15.00
2023-03-16T04:00:33.823Z,14.73
2023-03-16T04:01:40.981Z,14.27
2023-03-16T04:02:45.527Z,15.38
2023-03-16T04:04:09.042Z,15.43
2023-03-16T04:05:16.577Z,14.45
2023-03-16T04:06:24.173Z,15.73
2023-03-16T04:07:33.590Z,15.43
2023-03-16T04:08:40.881Z,13.75
2023-03-16T04:10:17.605Z,14.30
2023-03-16T04:11:27.758Z,14.45
2023-03-16T04:12:36.681Z,14.45
2023-03-16T04:13:47.580Z,14.07
2023-03-16T04:14:55.675Z,15.23
2023-03-16T04:16:03.800Z,14.80
2023-03-16T04:17:16.013Z,14.73
2023-03-16T04:18:29.689Z,14.75
2023-03-16T04:19:32.295Z,15.27
2023-03-16T04:21:59.544Z,14.98
2023-03-16T04:23:22.825Z,14.85
2023-03-16T04:24:46.673Z,13.88
2023-03-16T04:26:43.652Z,14.05
2023-03-16T04:34:26.918Z,13.50
2023-03-16T04:35:38.968Z,13.20
2023-03-16T04:36:47.233Z,13.93
2023-03-16T04:39:34.211Z,13.25
2023-03-16T04:40:51.753Z,13.25
2023-03-16T04:42:23.064Z,13.52
2023-03-16T04:43:37.779Z,13.23
2023-03-16T04:44:54.170Z,12.95
2023-03-16T04:45:58.916Z,13.73
2023-03-16T04:47:11.392Z,19.80
2023-03-16T04:48:26.279Z,20.05
2023-03-16T04:49:31.628Z,14.13
2023-03-16T04:50:36.868Z,13.20
2023-03-16T04:51:43.017Z,13.30
2023-03-16T04:54:32.833Z,13.63
2023-03-16T04:55:36.998Z,12.55
2023-03-16T04:56:47.263Z,13.63
2023-03-16T04:58:05.601Z,13.23
2023-03-16T04:59:16.235Z,13.30
2023-03-16T05:01:57.332Z,13.52
2023-03-16T05:03:08.197Z,12.48
2023-03-16T05:04:19.685Z,13.63
2023-03-16T05:05:23.340Z,13.60
2023-03-16T05:06:29.832Z,13.73
2023-03-16T05:07:34.782Z,14.05
2023-03-16T05:08:43.622Z,13.25
2023-03-16T05:09:48.340Z,13.07
2023-03-16T05:10:58.033Z,13.52
2023-03-16T05:12:25.299Z,13.23
2023-03-16T05:13:34.544Z,12.60
2023-03-16T05:14:37.119Z,13.32
2023-03-16T05:15:49.702Z,13.02
2023-03-16T05:16:57.607Z,14.02
2023-03-16T05:18:03.172Z,13.60
2023-03-16T05:19:08.738Z,12.65
2023-03-16T05:20:15.964Z,12.48
2023-03-16T05:21:22.863Z,13.00
2023-03-16T05:22:32.584Z,12.98
2023-03-16T05:23:54.590Z,12.77
2023-03-16T05:24:57.209Z,12.88
2023-03-16T05:26:13.753Z,13.15
2023-03-16T05:27:20.443Z,13.80
2023-03-16T05:28:25.028Z,13.52
2023-03-16T05:30:41.974Z,12.98
2023-03-16T05:31:47.911Z,13.43
2023-03-16T05:32:59.746Z,12.98
2023-03-16T05:34:11.169Z,14.35
2023-03-16T05:35:14.590Z,25.08
2023-03-16T05:36:17.749Z,14.18
2023-03-16T05:37:24.494Z,13.15
2023-03-16T05:38:38.270Z,12.63
2023-03-16T05:39:44.430Z,13.00
2023-03-16T05:40:53.228Z,13.00
2023-03-16T05:42:16.559Z,13.10
2023-03-16T05:43:31.717Z,12.90
2023-03-16T05:44:36.976Z,13.25
2023-03-16T05:45:59.292Z,12.77
2023-03-16T05:47:02.464Z,13.13
2023-03-16T05:48:08.661Z,12.80
2023-03-16T05:49:20.152Z,12.85
2023-03-16T05:50:23.535Z,14.07
2023-03-16T05:51:29.105Z,13.60
2023-03-16T05:52:32.851Z,13.38
2023-03-16T05:53:47.451Z,13.45
2023-03-16T05:55:13.730Z,13.23
2023-03-16T05:57:21.345Z,12.65
2023-03-16T05:58:26.581Z,12.90
2023-03-16T05:59:31.206Z,14.43
2023-03-16T06:00:34.016Z,14.60
2023-03-16T06:01:46.856Z,13.57
2023-03-16T06:02:52.109Z,13.38
2023-03-16T06:03:55.041Z,13.90
2023-03-16T06:05:02.255Z,14.70
2023-03-16T06:06:04.679Z,14.18
2023-03-16T06:08:16.700Z,14.05
2023-03-16T06:09:22.683Z,13.98
2023-03-16T06:10:27.083Z,13.73
2023-03-16T06:11:29.607Z,14.60
2023-03-16T06:12:32.726Z,14.23
2023-03-16T06:13:35.689Z,14.50
2023-03-16T06:14:40.167Z,14.15
2023-03-16T06:15:44.614Z,13.77
2023-03-16T06:16:48.598Z,14.23
2023-03-16T06:17:52.726Z,14.63
2023-03-16T06:18:58.518Z,14.50
2023-03-16T06:21:23.382Z,13.88
2023-03-16T06:22:31.944Z,14.65
2023-03-16T06:23:37.483Z,14.60
2023-03-16T06:24:42.841Z,14.80
2023-03-16T06:25:48.375Z,14.43
2023-03-16T06:26:51.625Z,14.85
2023-03-16T06:27:56.655Z,14.55
2023-03-16T06:29:01.407Z,13.73
2023-03-16T06:30:07.225Z,17.30
2023-03-16T06:31:10.033Z,15.43
2023-03-16T06:32:13.321Z,15.88
2023-03-16T06:33:16.604Z,14.05
2023-03-16T06:34:24.173Z,13.73
2023-03-16T06:36:57.237Z,14.70
2023-03-16T06:38:02.331Z,14.23
2023-03-16T06:39:34.862Z,14.82
2023-03-16T06:40:38.132Z,14.70
2023-03-16T06:41:43.354Z,15.18
2023-03-16T06:42:48.570Z,15.57
2023-03-16T06:43:55.923Z,15.52
2023-03-16T06:45:01.363Z,15.43
2023-03-16T06:46:05.982Z,15.07
2023-03-16T06:47:08.836Z,16.10
2023-03-16T06:48:32.524Z,15.75
2023-03-16T06:49:39.551Z,16.20
2023-03-16T06:51:18.624Z,16.05
2023-03-16T06:52:23.075Z,16.15
2023-03-16T06:53:25.767Z,15.75
2023-03-16T06:54:29.796Z,16.73
2023-03-16T06:55:32.720Z,15.90
2023-03-16T06:56:37.521Z,17.08
2023-03-16T06:57:41.638Z,16.35
2023-03-16T06:58:48.519Z,16.80
2023-03-16T06:59:51.409Z,16.40
2023-03-16T07:00:54.389Z,16.83
2023-03-16T07:01:57.894Z,15.98
2023-03-16T07:03:02.326Z,17.17
2023-03-16T07:04:06.066Z,17.35
2023-03-16T07:05:13.905Z,16.95
2023-03-16T07:06:18.133Z,17.40
2023-03-16T07:07:20.464Z,17.65
2023-03-16T07:08:23.099Z,16.83
2023-03-16T07:09:26.581Z,17.65
2023-03-16T07:10:29.996Z,16.92
2023-03-16T07:11:36.758Z,16.85
2023-03-16T07:12:42.021Z,17.17
2023-03-16T07:13:45.582Z,16.27
2023-03-16T07:14:54.379Z,16.80
2023-03-16T07:16:00.360Z,16.17
2023-03-16T07:17:02.776Z,16.83
2023-03-16T07:18:11.023Z,16.60
2023-03-16T07:19:13.810Z,16.20
2023-03-16T07:20:23.751Z,15.50
2023-03-16T07:21:26.353Z,16.00
2023-03-16T07:22:29.184Z,15.88
2023-03-16T07:23:33.678Z,15.63
2023-03-16T07:24:42.355Z,16.27
2023-03-16T07:25:46.248Z,16.98
2023-03-16T07:26:53.489Z,17.58
2023-03-16T07:28:10.771Z,17.27
2023-03-16T07:29:18.955Z,17.55
2023-03-16T07:30:22.409Z,16.63
2023-03-16T07:31:26.072Z,18.55
2023-03-16T07:32:30.437Z,17.40
2023-03-16T07:33:36.313Z,17.70
2023-03-16T07:34:43.846Z,17.10
2023-03-16T07:35:46.769Z,17.38
2023-03-16T07:36:49.782Z,18.05
2023-03-16T07:37:52.294Z,17.58
2023-03-16T07:38:55.447Z,18.27
2023-03-16T07:39:57.915Z,18.10
2023-03-16T07:41:01.456Z,17.23
2023-03-16T07:42:04.506Z,17.70
2023-03-16T07:43:19.844Z,17.98
2023-03-16T07:44:25.506Z,17.92
2023-03-16T07:45:30.334Z,18.13
2023-03-16T07:46:33.704Z,19.08
2023-03-16T07:47:36.824Z,17.85
2023-03-16T07:48:46.553Z,18.20
2023-03-16T07:49:52.762Z,19.33
2023-03-16T07:51:07.452Z,19.23
2023-03-16T07:52:10.257Z,19.30
2023-03-16T07:53:30.655Z,19.00
2023-03-16T07:55:11.432Z,19.60
2023-03-16T07:56:17.400Z,19.38
2023-03-16T07:57:23.652Z,19.17
2023-03-16T07:58:26.167Z,19.95
2023-03-16T07:59:29.449Z,20.38
2023-03-16T08:00:32.730Z,20.23
2023-03-16T08:01:39.176Z,21.40
2023-03-16T08:02:42.707Z,19.95
2023-03-16T08:03:48.434Z,20.20
2023-03-16T08:04:52.248Z,21.65
2023-03-16T08:05:55.673Z,20.90
2023-03-16T08:07:02.581Z,21.52
2023-03-16T08:08:20.657Z,21.58
2023-03-16T08:09:23.750Z,22.85
2023-03-16T08:10:32.515Z,21.90
2023-03-16T08:11:47.276Z,21.42
2023-03-16T08:12:49.842Z,21.77
2023-03-16T08:13:56.859Z,22.60
2023-03-16T08:15:02.712Z,22.30
2023-03-16T08:16:10.825Z,21.67
2023-03-16T08:17:15.733Z,21.23
2023-03-16T08:18:19.788Z,21.00
2023-03-16T08:19:23.023Z,21.58
2023-03-16T08:20:26.933Z,21.55
2023-03-16T08:21:30.707Z,22.40
2023-03-16T08:22:37.539Z,22.83
2023-03-16T08:23:40.507Z,22.33
2023-03-16T08:24:45.381Z,23.58
2023-03-16T08:25:55.484Z,23.13
2023-03-16T08:28:26.421Z,24.92
2023-03-16T08:29:31.228Z,23.83
2023-03-16T08:30:34.414Z,23.17
2023-03-16T08:31:56.469Z,23.15
2023-03-16T08:33:07.169Z,22.73
2023-03-16T08:34:12.644Z,23.98
2023-03-16T08:35:20.884Z,22.75
2023-03-16T08:36:25.354Z,23.77
2023-03-16T08:37:30.068Z,24.00
2023-03-16T08:38:35.265Z,23.17
2023-03-16T08:39:42.812Z,24.38
2023-03-16T08:40:51.395Z,24.40
2023-03-16T08:41:59.007Z,24.20
2023-03-16T08:43:19.458Z,24.88
2023-03-16T08:44:29.023Z,24.48
2023-03-16T08:45:31.655Z,23.20
2023-03-16T08:46:34.609Z,24.30
2023-03-16T08:47:40.695Z,24.65
2023-03-16T08:48:51.528Z,24.33
2023-03-16T08:50:00.518Z,24.30
2023-03-16T08:51:04.395Z,25.73
2023-03-16T08:52:10.520Z,24.63
2023-03-16T08:53:17.518Z,24.20
2023-03-16T08:54:20.628Z,23.83
2023-03-16T08:55:24.699Z,25.40
2023-03-16T08:56:27.629Z,25.38
2023-03-16T08:57:34.887Z,24.98
2023-03-16T08:58:40.505Z,25.73
2023-03-16T08:59:45.190Z,26.35
2023-03-16T09:00:51.006Z,25.20
2023-03-16T09:02:04.484Z,25.83
2023-03-16T09:03:08.264Z,25.48
2023-03-16T09:04:12.033Z,25.88
2023-03-16T09:05:16.136Z,25.20
2023-03-16T09:06:18.932Z,26.30
2023-03-16T09:07:21.310Z,26.10
2023-03-16T09:08:27.721Z,25.15
2023-03-16T09:09:36.018Z,24.52
2023-03-16T09:10:38.377Z,26.08
2023-03-16T09:11:40.643Z,25.13
2023-03-16T09:12:45.600Z,26.42
2023-03-16T09:13:48.477Z,26.70
2023-03-16T09:14:52.065Z,27.10
2023-03-16T09:15:55.375Z,26.52
2023-03-16T09:16:57.770Z,26.88
2023-03-16T09:18:04.005Z,27.92
2023-03-16T09:19:07.579Z,27.17
2023-03-16T09:20:34.890Z,27.17
2023-03-16T09:21:37.869Z,28.17
2023-03-16T09:22:41.656Z,27.27
2023-03-16T09:23:44.698Z,29.75
2023-03-16T09:24:53.213Z,29.27
2023-03-16T09:26:05.627Z,27.05
2023-03-16T09:27:08.123Z,29.15
2023-03-16T09:28:13.323Z,29.05
2023-03-16T09:29:16.445Z,28.30
2023-03-16T09:30:19.277Z,28.17
2023-03-16T09:31:23.119Z,28.45
2023-03-16T09:32:25.930Z,27.60
2023-03-16T09:33:30.133Z,29.67
2023-03-16T09:34:34.801Z,28.23
2023-03-16T09:35:38.055Z,27.35
2023-03-16T09:36:42.000Z,26.95
2023-03-16T09:38:01.048Z,26.75
2023-03-16T09:39:10.189Z,27.67
2023-03-16T09:40:36.199Z,28.02
2023-03-16T09:41:49.551Z,26.85
2023-03-16T09:43:06.983Z,28.67
2023-03-16T09:44:56.072Z,28.00
2023-03-16T09:46:42.499Z,27.75
2023-03-16T09:47:50.783Z,26.40
2023-03-16T09:48:55.552Z,26.35
2023-03-16T09:50:07.028Z,26.05
2023-03-16T09:51:45.079Z,26.42
2023-03-16T09:53:05.752Z,26.80
2023-03-16T09:54:48.453Z,26.92
2023-03-16T09:55:58.970Z,24.40
2023-03-16T09:57:06.878Z,25.35
2023-03-16T09:58:22.977Z,26.23
2023-03-16T09:59:29.794Z,25.80
2023-03-16T10:00:42.077Z,26.58
2023-03-16T10:02:05.364Z,25.65
2023-03-16T10:03:59.409Z,26.40
2023-03-16T10:05:20.622Z,25.58
2023-03-16T10:06:42.631Z,26.15
2023-03-16T10:08:13.462Z,25.70
2023-03-16T10:09:40.637Z,24.75
2023-03-16T10:11:17.722Z,26.42
2023-03-16T10:12:33.826Z,25.17
2023-03-16T10:14:08.169Z,25.38
2023-03-16T10:15:15.667Z,25.20
2023-03-16T10:16:23.612Z,24.65
2023-03-16T10:18:43.940Z,25.10
2023-03-16T10:19:51.881Z,24.05
2023-03-16T10:20:58.672Z,23.27
2023-03-16T10:22:10.286Z,24.27
2023-03-16T10:23:26.198Z,25.42
2023-03-16T10:25:08.337Z,26.55
2023-03-16T10:26:15.084Z,27.15
2023-03-16T10:27:29.188Z,28.95
2023-03-16T10:28:32.554Z,30.42
2023-03-16T10:29:37.259Z,29.75
2023-03-16T10:30:42.832Z,29.73
2023-03-16T10:31:49.375Z,28.88
2023-03-16T10:32:53.373Z,28.50
2023-03-16T10:34:04.960Z,30.25
2023-03-16T10:35:30.223Z,29.92
2023-03-16T10:36:35.944Z,30.08
2023-03-16T10:37:39.068Z,29.35
2023-03-16T10:38:47.021Z,30.60
2023-03-16T10:39:50.533Z,30.30
2023-03-16T10:40:54.642Z,31.65
2023-03-16T10:41:59.493Z,31.25
2023-03-16T10:43:14.623Z,32.75
2023-03-16T10:44:23.934Z,33.05
2023-03-16T10:45:32.321Z,32.30
2023-03-16T10:46:39.657Z,32.97
2023-03-16T10:47:42.426Z,33.97
2023-03-16T10:49:00.408Z,33.00
2023-03-16T10:50:16.957Z,33.30
2023-03-16T10:51:26.318Z,33.97
2023-03-16T10:52:50.162Z,31.13
2023-03-16T10:53:53.148Z,32.35
2023-03-16T10:55:21.419Z,32.78
2023-03-16T10:56:26.584Z,32.03
2023-03-16T10:57:42.387Z,31.05
2023-03-16T10:58:46.588Z,32.55
2023-03-16T10:59:50.986Z,31.98
2023-03-16T11:00:55.367Z,30.58
2023-03-16T11:01:58.592Z,31.50
2023-03-16T11:03:02.046Z,31.17
2023-03-16T11:04:16.780Z,30.42
2023-03-16T11:05:19.246Z,31.33
2023-03-16T11:06:40.120Z,30.63
2023-03-16T11:08:02.545Z,30.65
2023-03-16T11:09:15.266Z,30.30
2023-03-16T11:10:46.110Z,31.88
2023-03-16T11:11:56.100Z,31.60
2023-03-16T11:13:21.637Z,30.92
2023-03-16T11:14:28.997Z,30.13
2023-03-16T11:16:02.906Z,31.30
2023-03-16T11:17:15.131Z,30.92
2023-03-16T11:18:30.250Z,30.17
2023-03-16T11:19:49.669Z,30.27
2023-03-16T11:20:53.268Z,31.00
2023-03-16T11:22:16.729Z,31.02
2023-03-16T11:23:29.739Z,31.08
2023-03-16T11:24:52.992Z,31.98
2023-03-16T11:25:59.689Z,30.98
2023-03-16T11:27:08.741Z,31.70
2023-03-16T11:29:36.293Z,31.20
2023-03-16T11:30:48.046Z,32.05
2023-03-16T11:31:53.821Z,31.00
2023-03-16T11:32:57.038Z,31.55
2023-03-16T11:34:00.346Z,30.48
2023-03-16T11:35:08.244Z,30.23
2023-03-16T11:36:32.022Z,31.38
2023-03-16T11:38:09.875Z,29.10
2023-03-16T11:39:18.334Z,28.52
2023-03-16T11:40:54.203Z,27.95
2023-03-16T11:42:04.813Z,28.77
2023-03-16T11:43:10.090Z,28.80
2023-03-16T11:44:29.269Z,29.48
2023-03-16T11:46:44.791Z,27.60
2023-03-16T11:48:00.118Z,29.63
2023-03-16T11:49:30.263Z,27.60
2023-03-16T11:50:58.966Z,29.48
2023-03-16T11:52:20.329Z,28.17
2023-03-16T11:53:36.492Z,28.73
2023-03-16T11:54:56.458Z,28.88
2023-03-16T11:56:29.006Z,29.33
2023-03-16T11:58:10.622Z,28.27
2023-03-16T11:59:34.869Z,27.50
2023-03-16T12:00:59.591Z,26.60
2023-03-16T12:02:48.756Z,26.75
2023-03-16T12:04:30.851Z,26.05
2023-03-16T12:06:22.227Z,26.17
2023-03-16T12:07:40.201Z,26.73
2023-03-16T12:09:04.777Z,26.95
2023-03-16T12:10:39.179Z,26.48
2023-03-16T12:12:00.615Z,27.45
2023-03-16T12:13:30.930Z,26.02
2023-03-16T12:14:53.511Z,25.55
2023-03-16T12:16:13.152Z,26.92
2023-03-16T12:17:28.382Z,28.33
2023-03-16T12:18:57.865Z,26.52
2023-03-16T12:20:29.197Z,26.90
2023-03-16T12:21:43.360Z,25.95
2023-03-16T12:23:05.605Z,26.83
2023-03-16T12:24:22.925Z,27.50
2023-03-16T12:25:35.158Z,27.67
2023-03-16T12:26:42.849Z,25.67
2023-03-16T12:27:53.376Z,24.73
2023-03-16T12:28:58.884Z,26.35
2023-03-16T12:30:21.764Z,25.55
2023-03-16T12:31:49.868Z,26.27
2023-03-16T12:33:18.821Z,25.08
2023-03-16T12:35:26.699Z,23.02
2023-03-16T12:36:49.577Z,24.75
2023-03-16T12:38:26.006Z,23.92
2023-03-16T12:39:47.303Z,24.25
2023-03-16T12:41:05.267Z,24.45
2023-03-16T12:42:29.602Z,23.75
2023-03-16T12:43:38.036Z,25.00
2023-03-16T12:44:55.529Z,25.17
2023-03-16T12:46:23.252Z,25.25
2023-03-16T12:47:55.211Z,23.52
2023-03-16T12:49:01.989Z,25.20
2023-03-16T12:50:11.641Z,24.58
2023-03-16T12:51:14.271Z,26.23
2023-03-16T12:52:20.704Z,26.40
2023-03-16T12:53:44.895Z,28.30
2023-03-16T12:55:05.983Z,28.30
2023-03-16T12:56:18.717Z,28.45
2023-03-16T12:58:49.637Z,27.83
2023-03-16T13:00:00.320Z,28.70
2023-03-16T13:01:05.702Z,28.00
2023-03-16T13:02:25.141Z,27.67
2023-03-16T13:03:29.207Z,28.40
2023-03-16T13:04:35.751Z,29.33
2023-03-16T13:05:46.674Z,29.05
2023-03-16T13:06:53.056Z,28.35
2023-03-16T13:08:16.765Z,27.45
2023-03-16T13:09:25.137Z,28.02
2023-03-16T13:10:29.060Z,29.40
2023-03-16T13:11:53.903Z,30.38
2023-03-16T13:13:07.810Z,28.60
2023-03-16T13:14:18.543Z,27.70
2023-03-16T13:15:21.595Z,30.50
2023-03-16T13:16:33.615Z,29.65
2023-03-16T13:17:41.448Z,29.88
2023-03-16T13:18:46.819Z,30.08
2023-03-16T13:20:31.318Z,29.58
2023-03-16T13:21:43.221Z,28.88
2023-03-16T13:22:50.445Z,29.27
2023-03-16T13:24:27.628Z,30.38
2023-03-16T13:25:31.093Z,28.88
2023-03-16T13:26:55.254Z,29.73
2023-03-16T13:28:02.744Z,27.85
2023-03-16T13:29:29.157Z,30.25
2023-03-16T13:30:34.563Z,28.92
2023-03-16T13:31:41.736Z,31.30
2023-03-16T13:32:47.550Z,30.15
2023-03-16T13:33:57.136Z,31.88
2023-03-16T13:35:02.909Z,31.88
2023-03-16T13:36:08.524Z,31.20
2023-03-16T13:37:18.486Z,31.08
2023-03-16T13:38:27.759Z,29.55
2023-03-16T13:39:34.521Z,31.80
2023-03-16T13:40:48.982Z,28.95
2023-03-16T13:42:00.379Z,27.92
2023-03-16T13:43:04.543Z,27.15
2023-03-16T13:44:19.099Z,27.00
2023-03-16T13:45:33.551Z,27.55
2023-03-16T13:46:40.122Z,29.25
2023-03-16T13:47:49.325Z,29.80
2023-03-16T13:48:53.715Z,28.42
2023-03-16T13:49:59.019Z,29.33
2023-03-16T13:51:02.138Z,26.92
2023-03-16T13:52:06.207Z,25.00
2023-03-16T13:53:30.836Z,27.45
2023-03-16T13:54:39.210Z,25.80
2023-03-16T13:55:47.780Z,27.02
2023-03-16T13:56:54.062Z,26.58
2023-03-16T13:57:58.443Z,25.15
2023-03-16T13:59:02.023Z,22.55
2023-03-16T14:00:19.016Z,23.98
2023-03-16T14:01:32.922Z,22.95
2023-03-16T14:02:45.981Z,20.20
2023-03-16T14:03:49.408Z,20.13
2023-03-16T14:04:53.181Z,20.27
2023-03-16T14:05:58.228Z,19.83
2023-03-16T14:07:02.935Z,19.83
2023-03-16T14:08:15.644Z,20.92
2023-03-16T14:09:23.405Z,21.98
2023-03-16T14:10:33.663Z,24.02
2023-03-16T14:11:36.094Z,22.15
2023-03-16T14:12:50.844Z,23.15
2023-03-16T14:13:56.573Z,22.50
2023-03-16T14:14:59.243Z,22.77
2023-03-16T14:16:04.717Z,23.40
2023-03-16T14:17:15.650Z,22.30
2023-03-16T14:18:23.667Z,23.30
2023-03-16T14:19:41.824Z,23.40
2023-03-16T14:20:46.648Z,23.88
2023-03-16T14:21:56.514Z,26.08
2023-03-16T14:23:01.348Z,23.58
2023-03-16T14:24:07.746Z,24.70
2023-03-16T14:25:23.060Z,25.73
2023-03-16T14:26:27.304Z,24.48
2023-03-16T14:27:46.977Z,27.48
2023-03-16T14:29:05.481Z,27.55
2023-03-16T14:30:28.120Z,28.73
2023-03-16T14:31:38.823Z,27.65
2023-03-16T14:32:42.782Z,29.23
2023-03-16T14:33:48.592Z,28.92
2023-03-16T14:34:54.567Z,29.23
2023-03-16T14:36:11.110Z,29.65
2023-03-16T14:37:19.478Z,31.42
2023-03-16T14:38:41.416Z,30.63
2023-03-16T14:39:43.954Z,31.83
2023-03-16T14:40:58.552Z,31.75
2023-03-16T14:42:04.835Z,31.48
2023-03-16T14:43:12.088Z,32.08
2023-03-16T14:44:22.917Z,32.40
2023-03-16T14:45:38.901Z,34.30
2023-03-16T14:46:42.580Z,34.75
2023-03-16T14:47:50.091Z,31.88
2023-03-16T14:48:53.397Z,33.88
2023-03-16T14:49:59.160Z,33.88
2023-03-16T14:51:04.491Z,33.95
2023-03-16T14:52:15.640Z,33.88
2023-03-16T14:53:18.820Z,33.70
2023-03-16T14:54:23.519Z,33.95
2023-03-16T14:55:26.245Z,32.90
2023-03-16T14:56:35.496Z,34.05
2023-03-16T14:57:41.969Z,34.42
2023-03-16T14:58:48.105Z,35.03
2023-03-16T14:59:50.872Z,31.70
2023-03-16T15:00:55.286Z,33.00
2023-03-16T15:01:59.651Z,33.47
2023-03-16T15:03:10.112Z,33.75
2023-03-16T15:04:25.826Z,34.47
2023-03-16T15:05:36.540Z,34.47
2023-03-16T15:06:43.262Z,34.22
2023-03-16T15:07:47.322Z,33.97
2023-03-16T15:08:52.058Z,33.72
2023-03-16T15:09:56.488Z,33.80
2023-03-16T15:11:02.693Z,34.05
2023-03-16T15:12:13.326Z,34.17
2023-03-16T15:13:34.927Z,33.55
2023-03-16T15:14:55.771Z,33.10
2023-03-16T15:15:59.289Z,33.90
2023-03-16T15:17:01.885Z,36.33
2023-03-16T15:18:04.284Z,34.15
2023-03-16T15:19:06.720Z,35.80
2023-03-16T15:20:12.480Z,39.83
2023-03-16T15:21:18.592Z,37.80
2023-03-16T15:22:31.720Z,36.13
2023-03-16T15:23:36.972Z,35.60
2023-03-16T15:24:43.655Z,36.92
2023-03-16T15:25:48.812Z,36.53
2023-03-16T15:26:52.665Z,33.75
2023-03-16T15:27:56.817Z,34.95
2023-03-16T15:28:59.098Z,34.08
2023-03-16T15:30:03.247Z,35.53
2023-03-16T15:31:05.484Z,36.55
2023-03-16T15:32:14.683Z,34.75
2023-03-16T15:33:18.298Z,34.53